createdAt,value
2018-09-04T00:00:32.317Z,15.51
2018-09-04T00:03:00.516Z,15.38
2018-09-04T00:05:28.825Z,15.38
2018-09-04T00:07:57.014Z,15.37
2018-09-04T00:10:25.210Z,15.33
2018-09-04T00:12:53.412Z,15.30
2018-09-04T00:15:21.710Z,15.26
2018-09-04T00:17:49.905Z,15.25
2018-09-04T00:20:18.091Z,15.24
2018-09-04T00:22:46.283Z,15.22
2018-09-04T00:25:14.464Z,15.17
2018-09-04T00:27:42.654Z,15.18
2018-09-04T00:30:10.893Z,15.08
2018-09-04T00:32:39.090Z,15.09
2018-09-04T00:35:07.277Z,15.11
2018-09-04T00:37:35.505Z,15.14
2018-09-04T00:40:03.721Z,15.07
2018-09-04T00:42:31.913Z,14.95
2018-09-04T00:45:00.124Z,15.00
2018-09-04T00:47:28.407Z,15.07
2018-09-04T00:49:56.601Z,15.14
2018-09-04T00:52:24.829Z,15.10
2018-09-04T00:54:53.045Z,15.03
2018-09-04T00:57:21.233Z,15.01
2018-09-04T00:59:49.456Z,15.11
2018-09-04T01:02:17.737Z,15.09
2018-09-04T01:04:46.613Z,15.14
2018-09-04T01:07:14.912Z,15.06
2018-09-04T01:09:43.120Z,15.05
2018-09-04T01:12:11.330Z,15.04
2018-09-04T01:14:39.509Z,15.11
2018-09-04T01:17:07.813Z,15.00
2018-09-04T01:19:36.044Z,14.94
2018-09-04T01:22:04.295Z,14.95
2018-09-04T01:24:32.498Z,14.93
2018-09-04T01:27:00.746Z,14.89
2018-09-04T01:29:29.009Z,14.86
2018-09-04T01:31:57.301Z,14.91
2018-09-04T01:34:25.485Z,14.89
2018-09-04T01:36:53.761Z,14.85
2018-09-04T01:39:21.961Z,14.89
2018-09-04T01:41:50.265Z,14.91
2018-09-04T01:44:18.570Z,14.88
2018-09-04T01:46:46.821Z,14.93
2018-09-04T01:49:15.109Z,14.90
2018-09-04T01:51:43.421Z,14.93
2018-09-04T01:54:11.705Z,14.88
2018-09-04T01:56:39.895Z,14.83
2018-09-04T01:59:08.085Z,14.85
2018-09-04T02:01:36.782Z,14.80
2018-09-04T02:04:05.186Z,14.81
2018-09-04T02:06:33.377Z,14.80
2018-09-04T02:09:01.637Z,14.80
2018-09-04T02:11:29.829Z,14.85
2018-09-04T02:13:58.026Z,14.83
2018-09-04T02:16:26.301Z,14.72
2018-09-04T02:18:54.568Z,14.73
2018-09-04T02:21:22.788Z,14.74
2018-09-04T02:23:50.970Z,14.76
2018-09-04T02:26:19.166Z,14.71
2018-09-04T02:28:47.428Z,14.70
2018-09-04T02:31:15.737Z,14.67
2018-09-04T02:33:43.926Z,14.63
2018-09-04T02:36:12.102Z,14.56
2018-09-04T02:38:40.390Z,14.53
2018-09-04T02:41:08.849Z,14.50
2018-09-04T02:43:37.045Z,14.37
2018-09-04T02:46:05.527Z,14.43
2018-09-04T02:48:33.717Z,14.44
2018-09-04T02:51:01.980Z,14.38
2018-09-04T02:53:30.162Z,14.36
2018-09-04T02:55:58.345Z,14.37
2018-09-04T02:58:26.605Z,14.34
2018-09-04T03:00:54.810Z,14.36
2018-09-04T03:03:23.028Z,14.33
2018-09-04T03:05:51.226Z,14.34
2018-09-04T03:08:19.426Z,14.44
2018-09-04T03:10:47.629Z,14.40
2018-09-04T03:13:15.873Z,14.42
2018-09-04T03:15:44.126Z,14.30
2018-09-04T03:18:12.309Z,14.30
2018-09-04T03:20:40.518Z,14.21
2018-09-04T03:23:08.904Z,14.28
2018-09-04T03:25:37.074Z,14.25
2018-09-04T03:28:05.380Z,14.21
2018-09-04T03:30:33.552Z,14.36
2018-09-04T03:33:01.760Z,14.38
2018-09-04T03:35:30.030Z,14.50
2018-09-04T03:37:58.526Z,14.46
2018-09-04T03:40:26.733Z,14.45
2018-09-04T03:42:55.022Z,14.31
2018-09-04T03:45:23.281Z,14.23
2018-09-04T03:47:51.562Z,14.20
2018-09-04T03:50:19.854Z,14.19
2018-09-04T03:52:48.115Z,14.12
2018-09-04T03:55:16.341Z,14.15
2018-09-04T03:57:44.538Z,14.19
2018-09-04T04:00:12.765Z,14.22
2018-09-04T04:02:41.166Z,14.35
2018-09-04T04:05:09.366Z,14.46
2018-09-04T04:07:37.675Z,14.57
2018-09-04T04:10:06.173Z,14.51
2018-09-04T04:12:34.370Z,14.78
2018-09-04T04:15:02.553Z,14.63
2018-09-04T04:17:30.774Z,14.65
2018-09-04T04:19:59.021Z,14.66
2018-09-04T04:22:27.303Z,14.64
2018-09-04T04:24:55.527Z,14.68
2018-09-04T04:27:23.750Z,14.62
2018-09-04T04:29:51.969Z,14.84
2018-09-04T04:32:20.237Z,14.74
2018-09-04T04:34:48.646Z,14.71
2018-09-04T04:37:16.964Z,14.62
2018-09-04T04:39:45.218Z,14.48
2018-09-04T04:42:13.501Z,14.39
2018-09-04T04:44:41.803Z,14.39
2018-09-04T04:47:10.038Z,14.39
2018-09-04T04:49:38.214Z,14.54
2018-09-04T04:52:06.411Z,14.57
2018-09-04T04:54:34.598Z,14.47
2018-09-04T04:57:02.814Z,14.42
2018-09-04T04:59:31.000Z,14.45
2018-09-04T05:01:59.193Z,14.58
2018-09-04T05:04:28.814Z,14.64
2018-09-04T05:06:57.022Z,14.66
2018-09-04T05:09:25.239Z,14.64
2018-09-04T05:11:53.432Z,14.66
2018-09-04T05:14:21.647Z,14.66
2018-09-04T05:16:49.838Z,14.64
2018-09-04T05:19:18.017Z,14.62
2018-09-04T05:21:46.251Z,14.67
2018-09-04T05:24:14.455Z,14.55
2018-09-04T05:26:42.678Z,14.68
2018-09-04T05:29:10.858Z,14.74
2018-09-04T05:31:44.191Z,14.78
2018-09-04T05:34:12.434Z,14.78
2018-09-04T05:36:40.730Z,14.92
2018-09-04T05:39:09.857Z,14.91
2018-09-04T05:41:38.050Z,15.02
2018-09-04T05:44:06.397Z,15.04
2018-09-04T05:46:39.962Z,15.45
2018-09-04T05:49:08.345Z,15.55
2018-09-04T05:51:36.530Z,15.51
2018-09-04T05:54:04.741Z,15.61
2018-09-04T05:56:33.027Z,15.52
2018-09-04T05:59:01.237Z,15.48
2018-09-04T06:01:30.058Z,15.55
2018-09-04T06:03:58.240Z,15.54
2018-09-04T06:06:26.450Z,15.64
2018-09-04T06:08:54.633Z,15.60
2018-09-04T06:11:22.837Z,15.70
2018-09-04T06:13:51.088Z,15.64
2018-09-04T06:16:19.217Z,15.74
2018-09-04T06:18:47.429Z,15.58
2018-09-04T06:21:15.617Z,15.60
2018-09-04T06:23:43.846Z,15.52
2018-09-04T06:26:12.033Z,15.63
2018-09-04T06:28:40.242Z,15.69
2018-09-04T06:31:08.437Z,15.55
2018-09-04T06:33:36.733Z,15.58
2018-09-04T06:36:05.459Z,15.58
2018-09-04T06:38:33.687Z,15.66
2018-09-04T06:41:01.874Z,15.86
2018-09-04T06:43:30.066Z,15.90
2018-09-04T06:45:58.325Z,16.08
2018-09-04T06:48:26.550Z,16.01
2018-09-04T06:50:54.733Z,15.91
2018-09-04T06:53:22.925Z,15.98
2018-09-04T06:55:51.204Z,16.13
2018-09-04T06:58:19.370Z,16.11
2018-09-04T07:00:47.553Z,16.28
2018-09-04T07:03:15.745Z,16.47
2018-09-04T07:05:43.938Z,16.50
2018-09-04T07:08:12.154Z,16.50
2018-09-04T07:10:40.385Z,16.32
2018-09-04T07:16:07.498Z,16.35
2018-09-04T07:18:35.749Z,16.65
2018-09-04T07:21:03.966Z,16.76
2018-09-04T07:23:32.187Z,16.80
2018-09-04T07:26:00.405Z,16.87
2018-09-04T07:28:28.585Z,16.68
2018-09-04T07:30:56.821Z,16.82
2018-09-04T07:33:25.065Z,16.83
2018-09-04T07:35:53.249Z,17.08
2018-09-04T07:38:21.426Z,17.15
2018-09-04T07:40:49.613Z,17.28
2018-09-04T07:43:17.819Z,17.25
2018-09-04T07:45:46.067Z,17.42
2018-09-04T07:48:14.299Z,17.45
2018-09-04T07:50:42.488Z,17.28
2018-09-04T07:53:10.689Z,17.33
2018-09-04T07:55:38.950Z,17.54
2018-09-04T07:58:07.166Z,17.76
2018-09-04T08:00:35.934Z,17.91
2018-09-04T08:03:04.120Z,18.03
2018-09-04T08:05:32.346Z,18.02
2018-09-04T08:08:00.544Z,17.84
2018-09-04T08:10:33.259Z,18.12
2018-09-04T08:13:01.851Z,17.96
2018-09-04T08:15:30.073Z,18.37
2018-09-04T08:17:58.309Z,18.55
2018-09-04T08:20:26.858Z,18.49
2018-09-04T08:22:55.949Z,18.52
2018-09-04T08:25:25.038Z,18.50
2018-09-04T08:27:53.229Z,18.65
2018-09-04T08:30:21.417Z,18.83
2018-09-04T08:32:49.782Z,18.90
2018-09-04T08:35:18.023Z,18.98
2018-09-04T08:37:46.198Z,18.98
2018-09-04T08:40:14.394Z,18.84
2018-09-04T08:42:42.574Z,18.93
2018-09-04T08:45:10.778Z,19.10
2018-09-04T08:47:38.981Z,18.86
2018-09-04T08:50:07.186Z,18.98
2018-09-04T08:52:35.422Z,18.64
2018-09-04T08:55:03.637Z,18.85
2018-09-04T08:57:31.878Z,18.57
2018-09-04T09:00:00.104Z,18.67
2018-09-04T09:02:28.321Z,18.77
2018-09-04T09:04:56.617Z,18.61
2018-09-04T09:07:24.902Z,19.01
2018-09-04T09:09:53.103Z,19.15
2018-09-04T09:12:21.350Z,19.25
2018-09-04T09:14:49.529Z,19.03
2018-09-04T09:17:17.741Z,19.04
2018-09-04T09:19:45.970Z,19.20
2018-09-04T09:22:14.158Z,19.31
2018-09-04T09:24:42.392Z,19.71
2018-09-04T09:27:11.193Z,19.87
2018-09-04T09:29:39.401Z,19.90
2018-09-04T09:32:07.594Z,19.93
2018-09-04T09:34:35.830Z,19.87
2018-09-04T09:37:04.051Z,19.88
2018-09-04T09:39:32.213Z,20.16
2018-09-04T09:42:00.440Z,20.44
2018-09-04T09:44:28.681Z,20.31
2018-09-04T09:47:01.706Z,20.85
2018-09-04T09:49:30.752Z,20.72
2018-09-04T09:52:00.003Z,20.95
2018-09-04T09:54:28.364Z,21.12
2018-09-04T09:56:56.705Z,20.68
2018-09-04T09:59:24.965Z,20.82
2018-09-04T10:01:53.171Z,20.92
2018-09-04T10:04:21.607Z,20.60
2018-09-04T10:06:49.824Z,20.70
2018-09-04T10:09:21.005Z,20.82
2018-09-04T10:11:49.418Z,20.84
2018-09-04T10:14:17.698Z,21.21
2018-09-04T10:16:46.075Z,21.21
2018-09-04T10:19:14.356Z,21.10
2018-09-04T10:21:42.637Z,21.15
2018-09-04T10:24:10.850Z,21.35
2018-09-04T10:26:39.105Z,21.35
2018-09-04T10:29:07.310Z,21.00
2018-09-04T10:31:35.594Z,21.07
2018-09-04T10:34:03.834Z,21.03
2018-09-04T10:36:32.042Z,21.18
2018-09-04T10:39:05.839Z,21.13
2018-09-04T10:41:34.117Z,21.30
2018-09-04T10:44:02.390Z,21.64
2018-09-04T10:46:30.563Z,21.70
2018-09-04T10:48:58.838Z,21.47
2018-09-04T10:51:27.087Z,21.62
2018-09-04T10:53:55.352Z,21.87
2018-09-04T10:56:23.717Z,22.06
2018-09-04T10:58:51.907Z,21.90
2018-09-04T11:01:20.128Z,21.94
2018-09-04T11:03:48.313Z,22.25
2018-09-04T11:06:16.507Z,22.46
2018-09-04T11:08:44.733Z,22.52
2018-09-04T11:11:12.910Z,21.95
2018-09-04T11:13:41.097Z,22.11
2018-09-04T11:16:09.285Z,22.10
2018-09-04T11:18:37.494Z,22.13
2018-09-04T11:21:05.926Z,21.94
2018-09-04T11:23:34.152Z,21.71
2018-09-04T11:26:02.297Z,21.71
2018-09-04T11:28:30.866Z,21.81
2018-09-04T11:30:59.056Z,21.88
2018-09-04T11:33:27.315Z,21.81
2018-09-04T11:35:55.514Z,22.28
2018-09-04T11:38:23.730Z,21.91
2018-09-04T11:40:51.946Z,21.94
2018-09-04T11:43:20.134Z,22.09
2018-09-04T11:45:48.334Z,22.27
2018-09-04T11:48:17.737Z,22.62
2018-09-04T11:50:46.066Z,22.12
2018-09-04T11:53:14.409Z,22.46
2018-09-04T11:55:42.607Z,22.38
2018-09-04T11:58:10.831Z,22.20
2018-09-04T12:00:42.222Z,22.40
2018-09-04T12:03:11.792Z,22.11
2018-09-04T12:05:40.075Z,22.06
2018-09-04T12:08:08.242Z,22.27
2018-09-04T12:10:36.468Z,22.42
2018-09-04T12:13:04.675Z,22.45
2018-09-04T12:15:32.874Z,22.45
2018-09-04T12:18:01.077Z,22.15
2018-09-04T12:20:42.732Z,22.17
2018-09-04T12:23:11.102Z,22.28
2018-09-04T12:25:39.720Z,22.45
2018-09-04T12:28:07.949Z,22.30
2018-09-04T12:30:36.218Z,22.29
2018-09-04T12:33:04.643Z,22.42
2018-09-04T12:35:33.765Z,22.64
2018-09-04T12:38:02.381Z,22.60
2018-09-04T12:40:30.881Z,22.80
2018-09-04T12:43:00.881Z,22.74
2018-09-04T12:45:29.246Z,22.76
2018-09-04T12:47:57.476Z,22.51
2018-09-04T12:50:25.621Z,22.47
2018-09-04T12:52:53.817Z,22.32
2018-09-04T12:55:22.020Z,22.41
2018-09-04T12:57:50.209Z,22.51
2018-09-04T13:00:19.107Z,22.41
2018-09-04T13:02:47.638Z,22.50
2018-09-04T13:05:16.381Z,22.48
2018-09-04T13:07:44.565Z,22.68
2018-09-04T13:10:12.750Z,22.52
2018-09-04T13:12:40.946Z,22.50
2018-09-04T13:15:09.898Z,22.42
2018-09-04T13:17:38.079Z,22.53
2018-09-04T13:20:06.369Z,22.20
2018-09-04T13:22:34.585Z,22.11
2018-09-04T13:25:02.777Z,22.13
2018-09-04T13:27:31.107Z,22.21
2018-09-04T13:29:59.358Z,22.31
2018-09-04T13:32:27.593Z,22.50
2018-09-04T13:34:55.861Z,22.56
2018-09-04T13:37:24.511Z,22.75
2018-09-04T13:39:58.415Z,22.94
2018-09-04T13:42:27.997Z,22.88
2018-09-04T13:44:56.647Z,22.72
2018-09-04T13:47:26.932Z,22.90
2018-09-04T13:49:55.858Z,23.14
2018-09-04T13:52:24.334Z,23.28
2018-09-04T13:54:52.526Z,23.16
2018-09-04T13:57:20.709Z,22.95
2018-09-04T13:59:48.914Z,22.76
2018-09-04T14:02:17.152Z,23.07
2018-09-04T14:04:45.369Z,23.02
2018-09-04T14:07:13.684Z,22.71
2018-09-04T14:09:42.245Z,22.98
2018-09-04T14:12:10.486Z,23.05
2018-09-04T14:14:38.727Z,23.09
2018-09-04T14:17:40.073Z,23.35
2018-09-04T14:20:08.445Z,23.40
2018-09-04T14:22:36.741Z,23.15
2018-09-04T14:25:04.862Z,23.26
2018-09-04T14:27:33.073Z,23.32
2018-09-04T14:30:16.460Z,23.32
2018-09-04T14:32:29.443Z,23.22
2018-09-04T14:34:57.632Z,23.37
2018-09-04T14:37:25.833Z,23.37
2018-09-04T14:39:55.589Z,23.30
2018-09-04T14:42:22.295Z,23.47
2018-09-04T14:44:50.545Z,23.59
2018-09-04T14:47:18.726Z,23.83
2018-09-04T14:49:46.926Z,23.69
2018-09-04T14:52:15.274Z,23.57
2018-09-04T14:54:43.490Z,23.75
2018-09-04T14:57:11.689Z,23.67
2018-09-04T14:59:39.912Z,23.82
2018-09-04T15:02:08.137Z,23.65
2018-09-04T15:04:36.449Z,23.59
2018-09-04T15:07:04.807Z,24.07
2018-09-04T15:09:32.997Z,23.94
2018-09-04T15:12:01.222Z,23.84
2018-09-04T15:14:29.711Z,23.91
2018-09-04T15:16:59.688Z,24.13
2018-09-04T15:19:27.885Z,23.83
2018-09-04T15:21:56.072Z,24.03
2018-09-04T15:24:24.292Z,24.26
2018-09-04T15:26:52.532Z,24.36
2018-09-04T15:29:20.703Z,24.35
2018-09-04T15:31:48.998Z,24.36
2018-09-04T15:34:17.194Z,24.27
2018-09-04T15:36:45.413Z,23.98
2018-09-04T15:39:13.606Z,23.70
2018-09-04T15:41:41.812Z,24.51
2018-09-04T15:44:10.026Z,24.54
2018-09-04T15:46:38.238Z,24.26
2018-09-04T15:49:11.690Z,24.25
2018-09-04T15:51:39.905Z,24.72
2018-09-04T15:54:08.167Z,24.84
2018-09-04T15:56:36.489Z,24.41
2018-09-04T15:59:04.686Z,24.67
2018-09-04T16:01:33.374Z,24.50
2018-09-04T16:04:01.683Z,24.75
2018-09-04T16:06:29.894Z,24.77
2018-09-04T16:08:58.089Z,24.46
2018-09-04T16:11:26.311Z,24.33
2018-09-04T16:13:54.542Z,23.88
2018-09-04T16:16:22.763Z,24.06
2018-09-04T16:18:51.015Z,23.80
2018-09-04T16:21:19.229Z,23.37
2018-09-04T16:23:47.522Z,23.33
2018-09-04T16:26:15.721Z,23.41
2018-09-04T16:28:43.938Z,23.30
2018-09-04T16:31:12.251Z,23.26
2018-09-04T16:33:40.545Z,23.14
2018-09-04T16:36:08.765Z,23.14
2018-09-04T16:38:37.005Z,23.00
2018-09-04T16:41:05.287Z,22.88
2018-09-04T16:43:33.542Z,22.99
2018-09-04T16:46:01.960Z,23.07
2018-09-04T16:48:32.525Z,22.95
2018-09-04T16:51:01.798Z,22.84
2018-09-04T16:53:31.411Z,22.79
2018-09-04T16:56:00.322Z,22.62
2018-09-04T16:58:28.676Z,22.60
2018-09-04T17:00:57.022Z,22.72
2018-09-04T17:03:25.343Z,22.70
2018-09-04T17:05:53.549Z,22.78
2018-09-04T17:08:21.761Z,22.82
2018-09-04T17:10:50.021Z,22.73
2018-09-04T17:13:18.211Z,22.64
2018-09-04T17:15:46.442Z,22.52
2018-09-04T17:18:14.659Z,22.35
2018-09-04T17:20:42.858Z,22.28
2018-09-04T17:23:11.058Z,22.13
2018-09-04T17:25:39.317Z,22.03
2018-09-04T17:28:07.540Z,21.97
2018-09-04T17:30:35.773Z,21.90
2018-09-04T17:33:03.998Z,21.76
2018-09-04T17:35:32.215Z,21.71
2018-09-04T17:38:00.433Z,21.69
2018-09-04T17:40:28.690Z,21.56
2018-09-04T17:42:56.885Z,21.50
2018-09-04T17:45:25.099Z,21.44
2018-09-04T17:47:53.342Z,21.35
2018-09-04T17:50:21.489Z,21.28
2018-09-04T17:52:50.722Z,21.24
2018-09-04T17:55:18.978Z,21.15
2018-09-04T17:57:47.223Z,21.09
2018-09-04T18:00:15.418Z,21.01
2018-09-04T18:02:43.601Z,21.00
2018-09-04T18:05:11.794Z,20.98
2018-09-04T18:07:40.277Z,20.97
2018-09-04T18:10:47.437Z,20.90
2018-09-04T18:13:16.014Z,20.81
2018-09-04T18:15:44.201Z,20.74
2018-09-04T18:18:12.491Z,20.68
2018-09-04T18:20:40.767Z,20.62
2018-09-04T18:23:09.066Z,20.59
2018-09-04T18:25:37.441Z,20.55
2018-09-04T18:28:05.634Z,20.52
2018-09-04T18:30:33.934Z,20.50
2018-09-04T18:33:05.108Z,20.44
2018-09-04T18:35:33.317Z,20.40
2018-09-04T18:38:01.549Z,20.40
2018-09-04T18:40:29.838Z,20.41
2018-09-04T18:42:58.025Z,20.41
2018-09-04T18:45:40.922Z,20.41
2018-09-04T18:48:09.157Z,20.27
2018-09-04T18:50:37.469Z,20.23
2018-09-04T18:53:05.870Z,20.21
2018-09-04T18:55:34.057Z,20.11
2018-09-04T18:58:02.385Z,20.06
2018-09-04T19:00:30.613Z,20.01
2018-09-04T19:02:58.896Z,19.98
2018-09-04T19:05:27.580Z,19.95
2018-09-04T19:07:56.049Z,19.96
2018-09-04T19:10:24.453Z,19.89
2018-09-04T19:12:53.245Z,19.89
2018-09-04T19:15:21.575Z,19.85
2018-09-04T19:17:49.841Z,19.78
2018-09-04T19:20:18.115Z,19.82
2018-09-04T19:22:46.846Z,19.75
2018-09-04T19:25:15.790Z,19.71
2018-09-04T19:27:44.073Z,19.72
2018-09-04T19:30:12.978Z,19.78
2018-09-04T19:32:41.321Z,19.81
2018-09-04T19:35:09.604Z,19.89
2018-09-04T19:37:38.150Z,19.85
2018-09-04T19:40:06.577Z,19.79
2018-09-04T19:42:34.793Z,19.76
2018-09-04T19:45:03.357Z,19.69
2018-09-04T19:47:31.654Z,19.61
2018-09-04T19:50:00.078Z,19.57
2018-09-04T19:52:28.449Z,19.54
2018-09-04T19:54:56.878Z,19.51
2018-09-04T19:57:25.092Z,19.51
2018-09-04T19:59:53.357Z,19.49
2018-09-04T20:02:21.639Z,19.41
2018-09-04T20:04:49.913Z,19.38
2018-09-04T20:07:18.189Z,19.32
2018-09-04T20:09:46.390Z,19.24
2018-09-04T20:12:14.694Z,19.16
2018-09-04T20:14:42.957Z,19.11
2018-09-04T20:17:11.266Z,19.18
2018-09-04T20:19:39.529Z,19.13
2018-09-04T20:22:08.393Z,19.08
2018-09-04T20:24:36.638Z,19.10
2018-09-04T20:27:04.965Z,19.06
2018-09-04T20:29:33.311Z,18.94
2018-09-04T20:32:01.558Z,18.83
2018-09-04T20:34:29.818Z,18.75
2018-09-04T20:36:58.263Z,18.69
2018-09-04T20:39:26.569Z,18.57
2018-09-04T20:41:55.270Z,18.54
2018-09-04T20:44:23.563Z,18.66
2018-09-04T20:46:51.841Z,18.70
2018-09-04T20:49:20.183Z,18.73
2018-09-04T20:51:48.921Z,18.74
2018-09-04T20:54:17.390Z,18.66
2018-09-04T20:57:26.879Z,18.50
2018-09-04T21:00:07.729Z,18.27
2018-09-04T21:02:47.374Z,18.42
2018-09-04T21:05:27.637Z,18.38
2018-09-04T21:08:14.977Z,18.34
2018-09-04T21:10:43.616Z,18.33
2018-09-04T21:13:12.594Z,18.27
2018-09-04T21:15:40.849Z,18.24
2018-09-04T21:18:09.178Z,18.26
2018-09-04T21:20:37.384Z,18.25
2018-09-04T21:23:05.722Z,18.16
2018-09-04T21:25:33.977Z,18.28
2018-09-04T21:28:02.250Z,18.32
2018-09-04T21:30:30.559Z,18.31
2018-09-04T21:32:58.953Z,18.33
2018-09-04T21:35:27.268Z,18.40
2018-09-04T21:37:55.517Z,18.60
2018-09-04T21:40:23.742Z,18.66
2018-09-04T21:42:51.951Z,18.60
2018-09-04T21:45:20.257Z,18.55
2018-09-04T21:47:48.585Z,18.50
2018-09-04T21:50:16.738Z,18.48
2018-09-04T21:52:44.929Z,18.43
2018-09-04T21:55:13.190Z,18.41
2018-09-04T21:57:41.382Z,18.46
2018-09-04T22:00:10.149Z,18.41
2018-09-04T22:02:38.450Z,18.39
2018-09-04T22:05:06.852Z,18.34
2018-09-04T22:07:35.648Z,18.49
2018-09-04T22:10:03.929Z,18.60
2018-09-04T22:12:32.188Z,18.51
2018-09-04T22:15:00.493Z,18.39
2018-09-04T22:17:28.767Z,18.31
2018-09-04T22:19:56.977Z,18.22
2018-09-04T22:22:25.206Z,18.09
2018-09-04T22:24:53.517Z,18.14
2018-09-04T22:27:21.761Z,18.14
2018-09-04T22:29:49.969Z,18.09
2018-09-04T22:32:18.277Z,18.06
2018-09-04T22:34:47.598Z,17.85
2018-09-04T22:37:15.873Z,17.88
2018-09-04T22:39:44.120Z,17.81
2018-09-04T22:42:12.389Z,17.83
2018-09-04T22:44:40.610Z,17.77
2018-09-04T22:47:08.834Z,17.70
2018-09-04T22:49:37.659Z,17.69
2018-09-04T22:52:05.905Z,17.71
2018-09-04T22:54:34.178Z,17.69
2018-09-04T22:57:02.449Z,17.63
2018-09-04T22:59:30.657Z,17.58
2018-09-04T23:01:58.929Z,17.60
2018-09-04T23:04:27.230Z,17.66
2018-09-04T23:06:55.511Z,17.61
2018-09-04T23:09:23.809Z,17.55
2018-09-04T23:11:52.098Z,17.45
2018-09-04T23:14:20.369Z,17.44
2018-09-04T23:16:48.570Z,17.49
2018-09-04T23:19:16.861Z,17.39
2018-09-04T23:21:45.150Z,17.35
2018-09-04T23:24:13.501Z,17.33
2018-09-04T23:26:41.674Z,17.35
2018-09-04T23:29:09.870Z,17.36
2018-09-04T23:31:38.086Z,17.37
2018-09-04T23:34:06.520Z,17.38
2018-09-04T23:36:34.761Z,17.42
2018-09-04T23:39:17.072Z,17.42
2018-09-04T23:41:47.403Z,17.40
2018-09-04T23:44:15.669Z,17.33
2018-09-04T23:46:43.880Z,17.33
2018-09-04T23:49:12.764Z,17.33
2018-09-04T23:51:41.010Z,17.38
2018-09-04T23:54:09.306Z,17.39
2018-09-04T23:56:37.597Z,17.38
2018-09-04T23:59:05.905Z,17.33
